Estació meteorològica de Mataró (Maresme, Maresme)

Consulta les dades en temps real de l'estació meteorològica de Mataró





Hora UTC 14:45
Temperatura 18.0 ºC
Sòl 15 cm 22.3 ºC
Humitat 73.9 %
Pressió 1013.2 hPa
Pluja 0.0 mm
Velocitat vent 10.8 km/h
Direcció vent SE
Radiació solar 318.6 W/m²

Webcam

Dades diàries 2026-05-08



Hora UTC (hivern +1h; estiu +2h)
Temperatura (ºC) Humitat (%) Pressió (hPa) Velocitat vent (km/h) Precipitació (mm) Radiació solar (W/m²)
Hora UTC Aire Sòl 15 cm Humitat Pressió Vel. Dir. Vel. Max Dir. Intent. màx 5 min. Rad. Sol.
00:05 13.9 11.9 80.6 1012.6 6.1 NW 6.1 NW 0.0 0.1
00:10 13.9 12.2 80.2 1012.6 7.2 NNW 10.2 NW 0.0 0.1
00:15 14.0 12.4 80.0 1012.5 7.2 NNW 11.6 NNW 0.0 0.1
00:20 14.0 12.6 80.2 1012.5 4.7 NW 8.5 NW 0.0 0.1
00:25 13.9 12.6 80.3 1012.4 3.9 WNW 7.4 NW 0.0 0.1
00:30 13.9 12.6 80.2 1012.5 2.0 SW 4.2 SSW 0.0 0.1
00:35 13.9 12.5 80.5 1012.5 3.0 WSW 4.9 SW 0.0 0.1
00:40 13.8 12.4 80.7 1012.5 2.9 WSW 6.0 SSW 0.0 0.1
00:45 13.8 12.3 80.8 1012.5 3.3 W 6.0 WNW 0.0 0.1
00:50 13.7 12.2 80.4 1012.4 5.5 WNW 8.5 NW 0.0 0.1
00:55 13.8 12.3 79.3 1012.3 6.8 NW 8.5 WNW 0.0 0.1
01:00 13.9 12.4 78.5 1012.2 8.0 NW 10.6 NW 0.0 0.1
01:05 14.0 12.6 77.7 1012.2 7.7 NW 10.2 NW 0.0 0.1
01:10 14.0 12.8 77.5 1012.2 3.8 WNW 7.4 NW 0.0 0.1
01:15 14.0 12.8 77.4 1012.2 3.5 WNW 7.4 NW 0.0 0.1
01:20 14.0 12.8 77.0 1012.1 4.4 NNW 7.1 NW 0.0 0.1
01:25 13.8 12.7 76.8 1012.0 4.8 NW 6.7 NW 0.0 0.1
01:30 13.6 12.6 78.6 1012.0 4.2 NW 6.0 NW 0.0 0.1
01:35 13.4 12.4 79.8 1012.0 3.8 NW 7.1 NNW 0.0 0.1
01:40 13.1 12.1 79.8 1011.9 8.1 NNW 11.3 NNW 0.0 0.1
01:45 13.2 12.0 77.5 1011.9 8.8 NNW 11.3 NNW 0.0 0.1
01:50 13.4 12.1 76.7 1011.8 8.8 NNW 10.9 NNW 0.0 0.1
01:55 13.6 12.3 75.8 1011.8 9.1 NNW 10.9 NNW 0.0 0.1
02:00 13.8 12.6 75.2 1011.7 7.4 NNW 9.2 NNW 0.0 0.1
02:05 13.9 12.7 75.3 1011.8 4.3 NW 8.1 NW 0.0 0.1
02:10 13.9 12.8 76.1 1011.8 4.9 NNW 8.1 N 0.0 0.1
02:15 13.9 12.8 75.5 1011.8 5.7 NNW 8.5 NNW 0.0 0.1
02:20 14.0 12.9 75.1 1011.8 5.6 NNW 9.2 NNW 0.0 0.1
02:25 14.0 12.9 76.5 1011.8 7.2 NNW 9.5 NNW 0.0 0.1
02:30 13.9 12.8 77.5 1011.7 7.4 NNW 10.2 NNW 0.0 0.1
02:35 13.9 12.8 77.8 1011.6 7.3 NNW 9.5 NNW 0.0 0.1
02:40 13.8 12.8 78.3 1011.7 5.1 NNW 7.1 NNW 0.0 0.1
02:45 13.8 12.7 78.8 1011.6 5.6 NNW 8.1 NNW 0.0 0.1
02:50 13.6 12.6 79.8 1011.6 7.8 NNW 9.2 NNW 0.0 0.1
02:55 13.5 12.5 80.5 1011.6 8.0 NNW 9.2 NNW 0.0 0.1
03:00 13.5 12.4 80.4 1011.6 7.8 NNW 8.8 NNW 0.0 0.1
03:05 13.4 12.3 80.3 1011.6 7.6 N 8.8 N 0.0 0.0
03:10 13.4 12.3 79.0 1011.6 7.2 N 8.1 NNW 0.0 0.1
03:15 13.5 12.3 78.4 1011.6 7.4 NNW 9.2 NNW 0.0 0.1
03:20 13.4 12.2 78.7 1011.6 7.9 N 9.5 NNW 0.0 0.1
03:25 13.3 12.2 78.2 1011.6 6.3 NNW 7.8 NNW 0.0 0.1
03:30 13.1 12.0 78.3 1011.5 6.2 NNW 7.4 NNW 0.0 0.1
03:35 13.1 11.7 77.7 1011.5 6.7 NNW 7.8 NNW 0.0 0.1
03:40 13.1 11.6 77.1 1011.4 6.8 NNW 8.5 N 0.0 0.1
03:45 13.0 11.5 76.4 1011.4 6.3 N 7.4 NNW 0.0 0.1
03:50 13.1 11.3 75.7 1011.5 6.3 N 7.8 NNW 0.0 0.1
03:55 13.1 11.1 75.1 1011.5 6.5 N 7.8 N 0.0 0.1
04:00 13.1 11.1 74.4 1011.5 6.9 N 8.1 NNW 0.0 0.1
04:05 13.2 11.1 74.1 1011.5 5.4 NNW 6.7 NNW 0.0 0.1
04:10 13.0 11.0 74.5 1011.5 5.6 NNW 6.7 NNW 0.0 0.1
04:15 13.0 10.8 74.3 1011.5 5.6 NNW 6.7 NNW 0.0 0.1
04:20 13.0 10.7 74.1 1011.5 5.4 NNW 6.7 NNW 0.0 0.2
04:25 13.1 10.8 73.5 1011.6 4.9 NNW 6.0 NNW 0.0 0.5
04:30 13.1 10.9 73.2 1011.6 5.8 NNW 7.4 NNW 0.0 1.0
04:35 13.0 11.0 73.4 1011.7 6.7 NNW 8.8 NNW 0.0 1.8
04:40 13.0 11.1 73.4 1011.7 8.2 NNW 9.9 NNW 0.0 2.7
04:45 13.0 11.2 73.8 1011.7 8.9 NNW 10.6 NNW 0.0 3.8
04:50 13.0 11.3 73.9 1011.7 7.0 NNW 9.2 NNW 0.0 5.1
04:55 13.0 11.4 73.8 1011.7 7.1 NNW 8.5 NNW 0.0 7.5
05:00 13.1 11.4 73.1 1011.8 7.8 NNW 8.8 NNW 0.0 10.9
05:05 13.3 11.6 72.2 1011.8 7.5 NNW 8.1 N 0.0 13.6
05:10 13.4 11.9 71.2 1011.8 7.4 NNW 8.8 NNW 0.0 18.9
05:15 13.5 12.2 71.0 1011.8 6.2 NNW 7.8 NNW 0.0 27.0
05:20 13.5 12.5 72.9 1011.9 5.5 NNW 7.4 NW 0.0 34.3
05:25 13.5 12.8 73.7 1012.0 4.4 NNW 6.4 NW 0.0 34.3
05:30 13.6 13.1 73.6 1012.1 3.3 NNW 4.6 NNW 0.0 32.8
05:35 13.7 13.3 74.1 1012.2 1.6 NE 5.6 SE 0.0 34.6
05:40 13.8 13.6 73.9 1012.3 3.4 ESE 6.0 ESE 0.0 38.4
05:45 13.8 13.9 74.3 1012.4 1.5 E 4.2 E 0.0 39.6
05:50 13.9 14.1 75.2 1012.4 1.3 NW 2.5 NW 0.0 42.0
05:55 14.0 14.3 76.2 1012.5 2.3 N 4.2 N 0.0 51.2
06:00 14.0 14.5 74.9 1012.5 3.8 N 4.9 N 0.0 64.6
06:05 14.2 14.8 74.3 1012.4 3.8 N 4.9 N 0.0 78.5
06:10 14.4 15.2 73.6 1012.5 2.6 N 4.2 N 0.0 94.3
06:15 14.6 15.7 73.7 1012.5 1.5 N 2.5 N 0.0 108.7
06:20 14.8 16.3 74.2 1012.6 0.0 NNE 0.0 N 0.0 126.9
06:25 15.0 17.2 73.6 1012.6 0.0 NNE 0.0 N 0.0 160.2
06:30 15.3 18.1 73.7 1012.6 0.0 NNE 0.0 N 0.0 191.2
06:35 15.5 19.1 72.8 1012.7 1.0 NNW 3.9 NNW 0.0 227.5
06:40 15.8 20.1 71.8 1012.6 2.7 NNW 4.2 NNW 0.0 251.0
06:45 16.0 21.1 71.5 1012.6 1.7 NNW 5.3 NNW 0.0 318.6
06:50 16.5 22.1 69.5 1012.6 1.0 SE 3.2 SE 0.0 300.4
06:55 16.8 23.0 68.0 1012.6 0.4 ESE 2.5 SE 0.0 300.7
07:00 16.8 23.8 67.9 1012.7 0.3 NW 2.1 NNW 0.0 335.1
07:05 17.2 24.6 66.0 1012.7 3.2 SSE 8.1 SE 0.0 397.1
07:10 17.5 25.6 63.4 1012.7 3.9 S 8.8 S 0.0 354.7
07:15 17.4 26.1 64.3 1012.8 5.1 S 12.4 SSE 0.0 325.0
07:20 17.5 25.9 65.5 1012.9 6.2 S 10.6 S 0.0 358.0
07:25 17.6 25.9 66.8 1013.0 5.1 SSE 9.2 S 0.0 414.3
07:30 17.8 26.2 66.9 1013.0 4.8 SSE 10.6 SE 0.0 444.3
07:35 17.9 26.8 68.4 1013.1 9.0 SSE 14.5 SE 0.0 466.9
07:40 17.9 27.1 68.3 1013.2 7.4 SSE 14.5 SSE 0.0 451.6
07:45 17.8 27.0 72.2 1013.2 7.7 SSE 11.3 S 0.0 341.2
07:50 17.5 26.2 74.8 1013.2 7.7 S 12.0 SSE 0.0 325.9
07:55 17.5 25.5 76.2 1013.2 7.8 SE 14.5 SE 0.0 364.0
08:00 17.5 25.1 76.6 1013.2 9.5 SSE 16.9 SE 0.0 367.1
08:05 17.6 25.1 76.5 1013.2 7.1 SSE 10.6 S 0.0 468.5
08:10 17.7 25.7 73.6 1013.3 6.6 SSW 11.6 SSW 0.0 411.8
08:15 17.7 25.7 72.8 1013.3 6.8 SSE 11.6 ESE 0.0 321.5
08:20 17.7 25.5 72.6 1013.3 8.0 ESE 11.3 ESE 0.0 354.1
08:25 17.6 25.2 73.4 1013.4 6.3 SSE 9.9 SSE 0.0 332.1
08:30 17.8 25.1 71.5 1013.4 6.9 SSW 10.9 SSW 0.0 349.2
08:35 17.8 24.9 71.6 1013.6 8.4 SSE 13.4 S 0.0 349.0
08:40 17.8 24.8 72.0 1013.7 7.8 S 12.0 S 0.0 334.9
08:45 17.7 24.7 73.0 1013.8 10.2 S 14.5 SSE 0.0 279.1
08:50 17.5 24.0 74.3 1013.9 8.2 SE 11.6 SSE 0.0 267.0
08:55 17.5 23.5 75.7 1013.9 8.5 SE 13.8 SE 0.0 299.6
09:00 17.5 23.4 74.7 1014.0 6.9 SSE 10.6 SE 0.0 319.7
09:05 17.7 23.6 76.2 1014.0 8.0 SSE 13.1 SSE 0.0 320.6
09:10 17.8 23.9 76.5 1014.0 9.1 SE 14.5 ESE 0.0 407.9
09:15 17.7 24.4 76.3 1014.1 7.9 SE 13.8 ESE 0.0 423.5
09:20 17.9 25.0 74.7 1014.2 9.5 SSE 13.4 S 0.0 437.4
09:25 17.9 25.4 73.8 1014.3 8.3 SSE 14.1 SSE 0.0 398.4
09:30 17.9 25.5 73.0 1014.3 8.9 SSE 13.1 S 0.0 343.0
09:35 17.9 25.2 73.6 1014.4 9.8 SSE 15.9 SSE 0.0 352.9
09:40 17.9 24.8 73.7 1014.4 8.2 SSE 15.5 SSE 0.0 324.6
09:45 17.8 24.6 73.6 1014.4 6.7 SSE 10.9 S 0.0 309.2
09:50 17.7 24.5 72.7 1014.4 9.8 SE 18.0 SSE 0.0 557.6
09:55 17.8 25.3 72.8 1014.4 6.8 SSE 14.1 S 0.0 631.4
10:00 18.2 27.1 71.8 1014.3 7.0 S 16.9 S 0.0 936.0
10:05 18.9 29.6 70.4 1014.2 8.5 SE 14.5 ESE 0.0 819.0
10:10 18.8 30.7 68.9 1014.3 6.9 ESE 14.1 SE 0.0 478.3
10:15 18.6 30.0 67.8 1014.3 7.0 SE 12.7 SE 0.0 437.3
10:20 18.6 29.1 68.8 1014.3 6.0 S 14.1 S 0.0 576.2
10:25 18.8 28.7 65.5 1014.3 7.8 S 15.9 SSE 0.0 380.9
10:30 18.5 27.8 67.4 1014.3 7.7 SSE 16.6 SSE 0.0 406.4
10:35 18.5 27.3 68.2 1014.3 7.4 SSE 16.2 ESE 0.0 521.9
10:40 18.8 27.7 67.7 1014.3 9.1 SE 14.8 SE 0.0 667.7
10:45 18.8 28.8 66.9 1014.2 10.6 SSE 17.3 SSE 0.0 893.0
10:50 18.9 30.3 64.1 1014.0 8.3 SSE 15.5 SE 0.0 652.3
10:55 18.9 30.6 63.6 1013.9 5.8 SE 12.4 S 0.0 525.5
11:05 19.0 29.4 61.8 1013.8 6.2 S 16.9 SSE 0.0 461.9
11:10 18.8 28.8 58.0 1014.0 7.5 SSE 16.2 SE 0.0 453.6
11:15 18.7 28.2 60.1 1013.9 5.4 S 14.5 S 0.0 404.3
11:20 18.6 27.6 61.5 1014.0 5.8 SE 12.4 SE 0.0 471.3
11:25 18.7 27.4 62.6 1014.0 7.2 SSE 13.4 SSE 0.0 418.8
11:30 18.7 27.2 59.2 1014.0 4.5 S 12.7 SSE 0.0 417.6
11:35 18.7 27.0 60.4 1013.9 5.8 S 12.4 SSE 0.0 391.6
11:40 18.8 26.8 60.0 1014.0 6.7 S 13.4 SSE 0.0 378.2
11:45 18.6 26.4 56.9 1014.0 8.6 SSE 17.3 S 0.0 353.2
11:55 18.3 25.5 59.3 1014.1 10.3 SE 15.9 SE 0.0 460.6
12:00 18.4 25.7 55.8 1014.1 7.2 ESE 13.4 SE 0.0 459.9
12:05 18.4 26.1 56.4 1014.0 5.2 SSE 11.3 SSE 0.0 367.7
12:10 18.5 26.1 57.0 1014.0 7.0 ESE 12.7 SSE 0.0 338.6
12:15 18.5 26.2 60.0 1014.0 7.3 SSE 14.8 S 0.0 703.5
12:20 19.0 27.7 59.5 1014.1 6.5 SSE 13.4 SE 0.0 693.8
12:25 19.0 28.9 60.5 1014.1 7.7 ESE 16.6 ESE 0.0 655.3
12:30 19.1 29.8 61.3 1014.1 8.5 SSE 18.4 SE 0.0 673.6
12:35 19.1 30.6 61.4 1014.2 9.6 SE 17.6 SE 0.0 877.0
12:40 19.1 31.2 62.3 1014.2 9.6 SE 17.3 SSE 0.0 813.0
12:45 19.3 31.6 62.6 1014.2 10.8 ESE 21.2 ESE 0.0 859.0
12:50 19.5 32.0 62.7 1014.2 12.6 SE 19.1 SSE 0.0 701.6
12:55 18.9 31.5 63.0 1014.2 12.2 SE 21.5 SE 0.0 550.0
13:00 18.9 30.4 64.8 1014.1 8.7 S 15.9 SSE 0.0 543.0
13:05 19.0 30.1 65.1 1014.1 9.4 SSE 17.6 SSE 0.0 660.9
13:10 19.1 30.0 63.7 1014.0 11.0 S 18.0 SSW 0.0 692.9
13:15 19.3 29.9 64.7 1014.0 10.3 SE 17.3 SE 0.0 685.0
13:20 19.2 29.9 63.9 1014.1 10.6 SE 18.4 SSE 0.0 543.9
13:25 18.9 29.3 64.2 1014.1 11.5 SE 17.3 SSE 0.0 494.4
13:30 18.8 28.7 65.4 1014.1 10.6 SE 19.8 SE 0.0 579.8
13:35 19.0 28.7 65.8 1014.1 9.2 S 16.2 SSE 0.0 515.6
13:40 19.0 28.4 66.0 1014.1 7.2 SE 13.8 ESE 0.0 564.0
13:45 19.2 28.5 64.3 1014.0 8.2 SE 15.2 SE 0.0 578.6
13:50 19.1 28.7 64.9 1013.9 8.0 SE 15.5 SE 0.0 650.4
13:55 19.2 29.1 65.7 1013.9 10.2 SE 16.9 SSE 0.0 890.0
14:00 19.3 29.6 65.4 1013.8 11.1 SE 17.3 ESE 0.0 696.5
14:05 19.2 29.0 65.2 1013.8 10.9 SE 19.1 SSE 0.0 557.6
14:10 19.1 27.9 65.0 1013.8 12.7 SSE 19.4 SE 0.0 655.3
14:15 18.9 26.4 66.6 1013.7 7.8 SE 14.1 SE 0.0 604.1
14:20 19.2 25.2 63.6 1013.6 10.7 SE 17.6 SE 0.0 558.5
14:25 18.9 24.2 64.9 1013.5 9.9 ESE 15.9 ESE 0.0 350.7
14:30 18.6 23.5 68.4 1013.5 12.1 SE 18.0 SE 0.0 282.5
14:35 18.3 22.8 71.6 1013.4 12.3 SE 19.8 ESE 0.0 277.1
14:40 18.2 22.5 73.1 1013.3 12.8 SE 17.6 SE 0.0 292.1
14:45 18.0 22.3 73.9 1013.2 10.8 SE 18.4 SE 0.0 318.6
Màxima 19.5 32.0 80.8 1014.4 12.8 SE 21.5 SE 0.0 936.0
Mínima 13.0 10.7 55.8 1011.4
Total 0.0